Time;durP1;ratioP1;P1;durP2;ratioP2;P2;SDS_P1;SDS_P2;PMS_P1;PMS_P2;Temp;Humidity;BMP_temperature;BMP_pressure;BME280_temperature;BME280_humidity;BME280_pressure;Samples;Min_cycle;Max_cycle;Signal;HPM_P1;HPM_P2
2023/05/13 00:02:18;;;;;;;18.17;11.25;;;11.10;99.90;;;;;;5060645;28;20035;-78
2023/05/13 00:04:44;;;;;;;19.85;11.10;;;11.00;99.90;;;;;;5067090;28;20089;-77
2023/05/13 00:07:10;;;;;;;22.25;12.05;;;11.00;99.90;;;;;;5059036;28;20028;-77
2023/05/13 00:09:35;;;;;;;27.80;11.88;;;11.00;99.90;;;;;;5052224;28;20480;-77
2023/05/13 00:12:02;;;;;;;20.30;11.32;;;11.00;99.90;;;;;;5057167;28;20073;-78
2023/05/13 00:14:28;;;;;;;28.48;13.05;;;10.90;99.90;;;;;;5058352;28;20502;-78
2023/05/13 00:16:54;;;;;;;26.42;12.05;;;10.90;99.90;;;;;;5052095;28;20024;-78
2023/05/13 00:19:19;;;;;;;21.30;12.07;;;10.90;99.90;;;;;;5051334;28;20397;-78
2023/05/13 00:21:45;;;;;;;21.50;11.90;;;11.00;99.90;;;;;;5064281;28;20032;-78
2023/05/13 00:24:11;;;;;;;20.67;11.27;;;10.90;99.90;;;;;;5052111;28;20131;-77
2023/05/13 00:26:37;;;;;;;19.10;11.52;;;10.90;99.90;;;;;;5040998;28;20110;-77
2023/05/13 00:29:02;;;;;;;20.90;11.40;;;10.90;99.90;;;;;;5041850;28;20028;-77
2023/05/13 00:31:28;;;;;;;24.55;12.20;;;10.90;99.90;;;;;;5064124;28;20128;-77
2023/05/13 00:33:53;;;;;;;22.33;11.02;;;10.90;99.90;;;;;;5059991;28;20071;-77
2023/05/13 00:36:19;;;;;;;18.95;11.73;;;10.80;99.90;;;;;;5041652;28;20055;-77
2023/05/13 00:38:45;;;;;;;21.15;11.93;;;10.90;99.90;;;;;;5050411;28;20387;-78
2023/05/13 00:41:11;;;;;;;19.83;11.82;;;10.90;99.90;;;;;;5042400;28;20036;-77
2023/05/13 00:43:37;;;;;;;16.52;10.68;;;10.90;99.90;;;;;;5043789;28;20036;-78
2023/05/13 00:46:03;;;;;;;20.85;10.82;;;10.80;99.90;;;;;;5046567;28;20034;-77
2023/05/13 00:48:29;;;;;;;23.63;12.02;;;10.90;99.90;;;;;;5078986;28;20498;-78
2023/05/13 00:50:55;;;;;;;20.55;11.80;;;10.90;99.90;;;;;;5056199;28;20036;-76
2023/05/13 00:53:21;;;;;;;23.75;11.63;;;10.90;99.90;;;;;;5061362;28;20036;-77
2023/05/13 00:55:46;;;;;;;19.63;11.35;;;10.80;99.90;;;;;;5049912;28;20036;-77
2023/05/13 00:58:12;;;;;;;19.70;11.23;;;10.80;99.90;;;;;;5054489;28;20040;-78
2023/05/13 01:01:08;;;;;;;17.42;10.95;;;10.90;99.90;;;;;;5065632;28;20032;-77
2023/05/13 01:03:59;;;;;;;20.90;10.93;;;10.90;99.90;;;;;;5070367;28;20066;-77
2023/05/13 01:06:37;;;;;;;20.73;11.43;;;10.90;99.90;;;;;;5051011;28;20048;-77
2023/05/13 01:09:16;;;;;;;20.67;11.00;;;10.90;99.90;;;;;;5062966;28;20073;-77
2023/05/13 01:11:46;;;;;;;19.67;11.32;;;10.90;99.90;;;;;;5057768;28;20035;-77
2023/05/13 01:14:21;;;;;;;23.58;11.18;;;10.80;99.90;;;;;;5086292;28;20027;-78
2023/05/13 01:17:19;;;;;;;19.85;10.95;;;10.80;99.90;;;;;;5066972;28;20047;-77
2023/05/13 01:19:53;;;;;;;23.80;11.43;;;10.80;99.90;;;;;;5063712;28;20033;-77
2023/05/13 01:22:19;;;;;;;18.35;10.98;;;10.80;99.90;;;;;;5075452;28;20039;-78
2023/05/13 01:24:44;;;;;;;22.63;11.27;;;10.80;99.90;;;;;;5054505;28;20044;-78
2023/05/13 01:27:10;;;;;;;18.60;11.05;;;10.70;99.90;;;;;;5054164;28;20376;-78
2023/05/13 01:29:37;;;;;;;23.23;11.07;;;10.70;99.90;;;;;;5047412;28;20097;-78
2023/05/13 01:32:04;;;;;;;21.17;10.95;;;10.70;99.90;;;;;;5078789;28;20101;-78
2023/05/13 01:34:31;;;;;;;19.23;10.75;;;10.60;99.90;;;;;;5056887;28;20028;-79
2023/05/13 01:36:58;;;;;;;20.70;10.52;;;10.60;99.90;;;;;;5049255;28;20129;-78
2023/05/13 01:39:24;;;;;;;19.33;10.73;;;10.60;99.90;;;;;;5045466;28;20101;-78
2023/05/13 01:41:50;;;;;;;21.08;10.77;;;10.60;99.90;;;;;;5046145;28;20432;-79
2023/05/13 01:44:15;;;;;;;23.10;11.32;;;10.60;99.90;;;;;;5046268;28;20105;-78
2023/05/13 01:46:45;;;;;;;17.10;10.73;;;10.60;99.90;;;;;;5048086;28;20048;-78
2023/05/13 01:49:11;;;;;;;18.73;10.45;;;10.50;99.90;;;;;;5052436;28;20456;-78
2023/05/13 01:51:37;;;;;;;19.52;10.98;;;10.50;99.90;;;;;;5054770;28;20088;-78
2023/05/13 01:54:04;;;;;;;18.45;10.52;;;10.50;99.90;;;;;;5086954;28;20048;-78
2023/05/13 01:56:29;;;;;;;18.15;10.25;;;10.40;99.90;;;;;;5067881;28;20032;-77
2023/05/13 01:58:55;;;;;;;19.08;10.35;;;10.40;99.90;;;;;;5065795;28;20035;-78
2023/05/13 02:01:20;;;;;;;22.17;10.93;;;10.30;99.90;;;;;;5065251;28;20550;-77
2023/05/13 02:03:46;;;;;;;19.63;10.45;;;10.20;99.90;;;;;;5076471;28;20032;-78
2023/05/13 02:06:12;;;;;;;18.02;9.98;;;10.20;99.90;;;;;;5054093;28;20064;-78
2023/05/13 02:08:37;;;;;;;21.80;11.57;;;10.20;99.90;;;;;;5077649;28;20121;-78
2023/05/13 02:11:03;;;;;;;22.48;10.50;;;10.10;99.90;;;;;;5060236;28;20054;-78
2023/05/13 02:13:28;;;;;;;20.75;10.88;;;10.10;99.90;;;;;;5065637;28;20313;-77
2023/05/13 02:15:54;;;;;;;22.08;11.98;;;10.00;99.90;;;;;;5057267;28;20032;-77
2023/05/13 02:18:21;;;;;;;21.50;11.27;;;10.00;99.90;;;;;;5062836;28;20323;-78
2023/05/13 02:20:47;;;;;;;23.30;12.02;;;10.00;99.90;;;;;;5063006;28;20056;-78
2023/05/13 02:23:13;;;;;;;18.00;10.77;;;10.00;99.90;;;;;;5061688;28;20067;-78
2023/05/13 02:25:40;;;;;;;20.48;11.13;;;10.10;99.90;;;;;;5076199;28;20044;-78
2023/05/13 02:28:06;;;;;;;18.30;11.00;;;10.10;99.90;;;;;;5090764;28;20055;-78
2023/05/13 02:30:32;;;;;;;19.63;11.93;;;10.20;99.90;;;;;;5063445;28;20074;-78
2023/05/13 02:32:58;;;;;;;22.05;11.70;;;10.20;99.90;;;;;;5044775;28;20028;-78
2023/05/13 02:35:28;;;;;;;19.45;11.50;;;10.30;99.90;;;;;;5043843;28;20384;-78
2023/05/13 02:37:54;;;;;;;22.80;12.15;;;10.40;99.90;;;;;;5062681;28;20452;-78
2023/05/13 02:40:20;;;;;;;23.77;11.77;;;10.40;99.90;;;;;;5059455;28;20040;-78
2023/05/13 02:42:45;;;;;;;23.58;12.35;;;10.40;99.90;;;;;;5071524;28;20041;-78
2023/05/13 02:45:11;;;;;;;18.60;12.07;;;10.40;99.90;;;;;;5084602;28;20422;-78
2023/05/13 02:47:38;;;;;;;19.15;11.30;;;10.30;99.90;;;;;;5065383;28;20047;-78
2023/05/13 02:50:05;;;;;;;17.85;10.32;;;10.40;99.90;;;;;;5058890;28;20115;-78
2023/05/13 02:52:30;;;;;;;17.25;10.32;;;10.40;99.90;;;;;;5064466;28;20050;-77
2023/05/13 02:54:56;;;;;;;22.90;10.50;;;10.40;99.90;;;;;;5071964;28;20033;-78
2023/05/13 02:57:21;;;;;;;17.95;10.85;;;10.30;99.90;;;;;;5064194;28;20076;-78
2023/05/13 02:59:47;;;;;;;16.23;9.68;;;10.30;99.90;;;;;;5046313;28;20029;-78
2023/05/13 03:02:13;;;;;;;24.05;10.65;;;10.30;99.90;;;;;;5056833;28;20490;-78
2023/05/13 03:04:40;;;;;;;19.83;10.15;;;10.30;99.90;;;;;;5064715;28;20036;-78
2023/05/13 03:07:05;;;;;;;12.25;8.70;;;10.40;99.90;;;;;;5061600;28;20207;-78
2023/05/13 03:09:33;;;;;;;15.75;10.65;;;10.40;99.90;;;;;;5053542;28;20290;-79
2023/05/13 03:11:59;;;;;;;19.52;10.27;;;10.40;99.90;;;;;;5064541;28;20123;-78
2023/05/13 03:14:25;;;;;;;17.15;9.30;;;10.40;99.90;;;;;;5076211;28;20123;-78
2023/05/13 03:16:50;;;;;;;18.13;10.43;;;10.50;99.90;;;;;;5065069;28;20482;-77
2023/05/13 03:19:16;;;;;;;19.95;9.75;;;10.40;99.90;;;;;;5070901;28;20025;-78
2023/05/13 03:21:42;;;;;;;18.02;9.82;;;10.40;99.90;;;;;;5052857;28;20028;-78
2023/05/13 03:24:07;;;;;;;22.02;9.68;;;10.40;99.90;;;;;;5043788;28;20412;-78
2023/05/13 03:26:33;;;;;;;17.55;9.65;;;10.40;99.90;;;;;;5064609;28;20056;-78
2023/05/13 03:29:00;;;;;;;16.42;9.82;;;10.50;99.90;;;;;;5094535;28;20130;-77
2023/05/13 03:31:26;;;;;;;18.05;9.95;;;10.60;99.90;;;;;;5082607;28;20028;-78
2023/05/13 03:33:52;;;;;;;14.57;9.07;;;10.60;99.90;;;;;;5050329;28;20505;-78
2023/05/13 03:36:17;;;;;;;19.35;10.05;;;10.70;99.90;;;;;;5061513;28;20410;-77
2023/05/13 03:38:43;;;;;;;19.10;10.18;;;10.60;99.90;;;;;;5061157;28;20032;-78
2023/05/13 03:41:08;;;;;;;21.25;10.30;;;10.60;99.90;;;;;;5049751;28;20485;-78
2023/05/13 03:43:34;;;;;;;16.25;10.05;;;10.60;99.90;;;;;;5043305;28;20261;-78
2023/05/13 03:46:00;;;;;;;18.08;9.90;;;10.50;99.90;;;;;;5043604;28;20051;-79
2023/05/13 03:48:25;;;;;;;22.80;10.50;;;10.50;99.90;;;;;;5060027;28;20049;-78
2023/05/13 03:50:52;;;;;;;17.05;9.65;;;10.50;99.90;;;;;;5053890;28;20078;-78
2023/05/13 03:53:17;;;;;;;19.40;9.20;;;10.50;99.90;;;;;;5062441;28;20028;-78
2023/05/13 03:55:44;;;;;;;16.92;8.82;;;10.50;99.90;;;;;;5063299;28;20039;-78
2023/05/13 03:58:13;;;;;;;16.65;9.27;;;10.40;99.90;;;;;;5057960;28;20028;-78
2023/05/13 04:00:39;;;;;;;15.35;8.88;;;10.30;99.90;;;;;;5057807;28;20504;-79
2023/05/13 04:03:04;;;;;;;15.48;8.68;;;10.30;99.90;;;;;;5051381;28;20051;-78
2023/05/13 04:05:30;;;;;;;14.05;8.77;;;10.20;99.90;;;;;;5058552;28;20032;-78
2023/05/13 04:07:56;;;;;;;16.77;8.75;;;10.30;99.90;;;;;;5061719;28;20368;-78
2023/05/13 04:10:22;;;;;;;15.73;8.77;;;10.30;99.90;;;;;;5042996;28;20120;-78
2023/05/13 04:12:47;;;;;;;13.25;8.48;;;10.30;99.90;;;;;;5063752;28;20074;-79
2023/05/13 04:15:13;;;;;;;14.65;9.30;;;10.40;99.90;;;;;;5066584;28;20226;-78
2023/05/13 04:17:39;;;;;;;15.43;7.97;;;10.40;99.90;;;;;;5081803;28;20042;-78
2023/05/13 04:20:05;;;;;;;15.25;8.40;;;10.40;99.90;;;;;;5073091;28;20027;-79
2023/05/13 04:22:31;;;;;;;14.63;8.77;;;10.30;99.90;;;;;;5081514;28;20093;-78
2023/05/13 04:24:57;;;;;;;15.88;9.40;;;10.30;99.90;;;;;;5062537;28;20032;-78
2023/05/13 04:27:23;;;;;;;13.95;8.40;;;10.40;99.90;;;;;;5069126;28;20039;-78
2023/05/13 04:29:49;;;;;;;16.95;8.93;;;10.30;99.90;;;;;;5083218;28;20387;-78
2023/05/13 04:32:20;;;;;;;17.02;8.63;;;10.30;99.90;;;;;;5082074;28;20029;-79
2023/05/13 04:34:46;;;;;;;15.50;8.98;;;10.30;99.90;;;;;;5042145;28;20093;-77
2023/05/13 04:37:12;;;;;;;16.83;8.40;;;10.30;99.90;;;;;;5046451;28;20046;-78
2023/05/13 04:39:37;;;;;;;15.07;8.73;;;10.30;99.90;;;;;;5060796;28;20333;-79
2023/05/13 04:42:03;;;;;;;17.67;9.60;;;10.30;99.90;;;;;;5067828;28;20097;-79
2023/05/13 04:44:29;;;;;;;18.52;9.32;;;10.40;99.90;;;;;;5061887;28;20126;-78
2023/05/13 04:46:54;;;;;;;16.17;8.90;;;10.30;99.90;;;;;;5099516;28;20132;-78
2023/05/13 04:49:20;;;;;;;16.88;9.68;;;10.50;99.90;;;;;;5064440;28;20027;-78
2023/05/13 04:51:45;;;;;;;16.95;9.60;;;10.40;99.90;;;;;;5053580;28;20090;-77
2023/05/13 04:54:11;;;;;;;17.65;9.30;;;10.50;99.90;;;;;;5059826;28;20025;-78
2023/05/13 04:56:36;;;;;;;18.52;9.25;;;10.50;99.90;;;;;;5052316;28;20514;-78
2023/05/13 04:59:02;;;;;;;16.63;9.32;;;10.60;99.90;;;;;;5045693;28;20020;-77
2023/05/13 05:01:28;;;;;;;15.55;8.95;;;10.50;99.90;;;;;;5057652;28;20052;-78
2023/05/13 05:03:53;;;;;;;21.27;9.55;;;10.60;99.90;;;;;;5053486;28;20039;-78
2023/05/13 05:06:20;;;;;;;18.95;9.75;;;10.60;99.90;;;;;;5041971;28;20415;-78
2023/05/13 05:08:46;;;;;;;16.67;9.10;;;10.70;99.90;;;;;;5045217;28;20479;-78
2023/05/13 05:11:11;;;;;;;14.60;8.55;;;10.80;99.90;;;;;;5045889;28;20063;-78
2023/05/13 05:13:37;;;;;;;19.45;9.65;;;11.00;99.90;;;;;;5093535;28;20032;-78
2023/05/13 05:16:03;;;;;;;14.35;9.05;;;11.00;99.90;;;;;;5055615;28;20083;-78
2023/05/13 05:18:28;;;;;;;17.55;9.13;;;11.00;99.90;;;;;;5058891;28;20365;-79
2023/05/13 05:20:54;;;;;;;18.67;9.68;;;11.10;99.90;;;;;;5042947;28;20321;-78
2023/05/13 05:23:20;;;;;;;16.38;8.90;;;11.00;99.90;;;;;;5052000;28;20023;-77
2023/05/13 05:25:45;;;;;;;18.15;9.38;;;11.10;99.90;;;;;;5080770;28;20153;-78
2023/05/13 05:28:11;;;;;;;15.93;9.20;;;11.10;99.90;;;;;;5063461;28;20031;-79
2023/05/13 05:30:39;;;;;;;14.07;8.82;;;11.10;99.90;;;;;;5042587;28;20032;-78
2023/05/13 05:33:06;;;;;;;15.70;8.77;;;11.20;99.90;;;;;;5042612;28;20375;-78
2023/05/13 05:35:37;;;;;;;17.60;9.07;;;11.30;99.90;;;;;;5061502;28;20476;-78
2023/05/13 05:38:06;;;;;;;18.63;9.15;;;11.20;99.90;;;;;;5047162;28;20104;-78
2023/05/13 05:40:32;;;;;;;16.00;9.05;;;11.20;99.90;;;;;;5057405;28;20034;-78
2023/05/13 05:42:57;;;;;;;14.15;9.05;;;11.20;99.90;;;;;;5079384;28;20386;-78
2023/05/13 05:45:23;;;;;;;16.77;8.98;;;11.10;99.90;;;;;;5049424;28;20486;-78
2023/05/13 05:47:49;;;;;;;13.52;7.95;;;11.00;99.90;;;;;;5056344;28;20040;-77
2023/05/13 05:50:14;;;;;;;14.27;8.20;;;11.20;99.90;;;;;;5049023;28;20127;-78
2023/05/13 05:52:40;;;;;;;14.15;8.45;;;11.30;99.90;;;;;;5047520;28;20063;-78
2023/05/13 05:55:06;;;;;;;15.30;8.25;;;11.40;99.90;;;;;;5046418;28;20036;-78
2023/05/13 05:57:32;;;;;;;16.70;8.05;;;11.40;99.90;;;;;;5070585;28;20399;-77
2023/05/13 05:59:57;;;;;;;16.05;8.40;;;11.40;99.90;;;;;;5087000;28;20035;-77
2023/05/13 06:02:23;;;;;;;18.98;8.70;;;11.40;99.90;;;;;;5064507;28;20035;-78
2023/05/13 06:04:49;;;;;;;11.70;8.40;;;11.40;99.90;;;;;;5059567;28;20041;-78
2023/05/13 06:07:14;;;;;;;82.28;39.40;;;11.60;99.90;;;;;;5045286;28;20043;-77
2023/05/13 06:09:40;;;;;;;20.92;10.52;;;11.60;99.90;;;;;;5064259;28;20072;-78
2023/05/13 06:12:06;;;;;;;13.10;8.25;;;11.90;99.90;;;;;;5079661;28;20035;-77
2023/05/13 06:14:31;;;;;;;15.70;8.93;;;11.80;99.90;;;;;;5061774;28;20086;-78
2023/05/13 06:16:57;;;;;;;14.77;8.68;;;11.80;99.90;;;;;;5063655;28;20446;-77
2023/05/13 06:19:22;;;;;;;15.57;8.40;;;11.90;99.90;;;;;;5056030;28;20111;-78
2023/05/13 06:21:48;;;;;;;16.20;8.18;;;12.00;99.90;;;;;;5045486;28;20596;-79
2023/05/13 06:24:14;;;;;;;14.50;8.63;;;12.10;99.90;;;;;;5067453;28;20375;-79
2023/05/13 06:26:39;;;;;;;14.02;8.68;;;12.10;99.90;;;;;;5048532;28;20529;-78
2023/05/13 06:29:05;;;;;;;29.35;18.77;;;12.10;99.90;;;;;;5050034;28;20036;-78
2023/05/13 06:31:31;;;;;;;16.08;9.23;;;11.90;99.90;;;;;;5052209;28;20502;-78
2023/05/13 06:33:56;;;;;;;17.98;9.02;;;11.80;99.90;;;;;;5059020;28;20024;-78
2023/05/13 06:36:22;;;;;;;15.98;8.70;;;11.90;99.90;;;;;;5078779;28;20055;-84
2023/05/13 06:38:47;;;;;;;16.73;9.32;;;12.00;99.90;;;;;;5049731;28;20050;-89
2023/05/13 06:41:14;;;;;;;13.18;8.57;;;11.90;99.90;;;;;;5068114;28;20220;-87
2023/05/13 06:43:40;;;;;;;14.18;8.25;;;12.10;99.90;;;;;;5054285;28;20751;-90
2023/05/13 06:46:05;;;;;;;18.98;9.98;;;12.10;99.90;;;;;;5059596;28;20212;-89
2023/05/13 06:48:31;;;;;;;16.90;8.77;;;12.00;99.90;;;;;;5056534;28;20348;-90
2023/05/13 06:50:57;;;;;;;13.75;7.85;;;12.20;99.90;;;;;;5081368;28;20031;-90
2023/05/13 06:53:22;;;;;;;14.73;8.10;;;12.30;99.90;;;;;;5070415;28;20535;-90
2023/05/13 06:55:48;;;;;;;16.25;8.23;;;12.60;99.90;;;;;;5068085;28;20085;-90
2023/05/13 06:58:14;;;;;;;17.17;8.35;;;12.60;99.90;;;;;;5063102;28;20024;-89
2023/05/13 07:00:40;;;;;;;14.77;8.23;;;12.80;99.90;;;;;;5063470;28;20039;-88
2023/05/13 07:03:06;;;;;;;17.77;8.73;;;13.10;99.90;;;;;;5070304;28;20086;-90
2023/05/13 07:05:33;;;;;;;11.98;7.97;;;13.10;99.90;;;;;;5070424;28;20127;-90
2023/05/13 07:07:59;;;;;;;12.30;7.65;;;13.40;99.90;;;;;;5070953;28;20051;-89
2023/05/13 07:10:24;;;;;;;12.60;7.47;;;13.90;99.90;;;;;;5067367;28;20052;-89
2023/05/13 07:12:50;;;;;;;10.55;7.05;;;14.10;99.90;;;;;;5077648;28;20222;-89
2023/05/13 07:15:15;;;;;;;15.57;7.68;;;14.30;99.90;;;;;;5093797;28;20080;-89
2023/05/13 07:17:41;;;;;;;14.00;7.53;;;14.30;99.90;;;;;;5085902;28;20032;-88
2023/05/13 07:20:08;;;;;;;11.45;7.40;;;14.30;99.90;;;;;;5069477;28;20067;-88
2023/05/13 07:22:34;;;;;;;13.95;6.93;;;14.10;99.90;;;;;;5061001;28;20036;-89
2023/05/13 07:25:00;;;;;;;11.30;7.00;;;14.30;99.90;;;;;;5068147;28;20560;-90
2023/05/13 07:27:26;;;;;;;11.75;7.18;;;14.50;99.90;;;;;;5064340;28;20032;-89
2023/05/13 07:29:51;;;;;;;15.23;7.40;;;14.90;99.90;;;;;;5092464;28;20175;-90
2023/05/13 07:32:17;;;;;;;14.05;7.40;;;15.00;99.90;;;;;;5070151;28;20025;-87
2023/05/13 07:34:43;;;;;;;14.80;6.57;;;14.90;99.90;;;;;;5065069;28;20032;-85
2023/05/13 07:37:09;;;;;;;12.07;6.50;;;15.20;99.90;;;;;;5062463;28;20119;-88
2023/05/13 07:39:35;;;;;;;12.70;6.60;;;15.50;99.90;;;;;;5065098;28;20475;-85
2023/05/13 07:42:01;;;;;;;10.52;5.72;;;16.30;99.90;;;;;;5062910;28;20130;-86
2023/05/13 07:44:26;;;;;;;9.27;5.47;;;18.10;97.90;;;;;;5067152;28;20058;-87
2023/05/13 07:46:52;;;;;;;9.93;5.43;;;19.40;74.20;;;;;;5085076;28;20044;-88
2023/05/13 07:49:19;;;;;;;9.45;5.30;;;20.70;61.00;;;;;;5048010;28;20382;-88
2023/05/13 07:51:44;;;;;;;10.32;5.50;;;22.00;53.20;;;;;;5054681;28;20032;-87
2023/05/13 07:54:10;;;;;;;10.05;4.45;;;22.40;52.30;;;;;;5087495;28;20047;-89
2023/05/13 07:56:37;;;;;;;6.20;4.15;;;24.10;49.60;;;;;;5066597;28;20058;-89
2023/05/13 07:59:02;;;;;;;8.90;4.43;;;26.00;45.30;;;;;;5064218;28;20035;-91
2023/05/13 08:01:28;;;;;;;7.40;4.13;;;26.70;40.20;;;;;;5064238;28;20788;-86
2023/05/13 08:03:54;;;;;;;7.60;4.13;;;27.60;41.20;;;;;;5052851;28;20059;-89
2023/05/13 08:06:20;;;;;;;7.72;4.05;;;29.40;37.40;;;;;;5074246;28;20059;-87
2023/05/13 08:08:46;;;;;;;9.63;3.72;;;30.80;35.90;;;;;;5060643;28;20075;-88
2023/05/13 08:11:12;;;;;;;5.57;3.80;;;31.40;33.70;;;;;;5055630;28;20502;-85
2023/05/13 08:13:38;;;;;;;7.60;4.18;;;31.20;31.60;;;;;;5072171;28;20035;-82
2023/05/13 08:16:05;;;;;;;5.88;4.00;;;28.80;32.30;;;;;;5068851;28;20131;-85
2023/05/13 08:18:31;;;;;;;6.90;3.45;;;29.20;34.50;;;;;;5055116;28;20032;-85
2023/05/13 08:20:57;;;;;;;7.05;4.18;;;29.50;34.60;;;;;;5049464;28;20032;-85
2023/05/13 08:23:24;;;;;;;6.72;4.40;;;28.70;34.90;;;;;;5056765;28;20114;-85
2023/05/13 08:25:50;;;;;;;8.35;4.30;;;27.20;35.20;;;;;;5052435;28;20044;-85
2023/05/13 08:28:16;;;;;;;6.13;3.47;;;28.20;36.00;;;;;;5041715;28;20046;-86
2023/05/13 08:30:43;;;;;;;5.57;3.15;;;30.10;35.60;;;;;;5063669;28;20039;-83
2023/05/13 08:33:12;;;;;;;5.97;3.63;;;32.10;33.00;;;;;;5047888;28;20047;-86
2023/05/13 08:35:37;;;;;;;7.63;3.28;;;32.40;31.50;;;;;;5051966;28;20031;-84
2023/05/13 08:38:04;;;;;;;6.28;3.25;;;33.30;32.80;;;;;;5056871;28;20043;-87
2023/05/13 08:40:30;;;;;;;5.55;3.00;;;34.40;30.30;;;;;;5053230;28;20069;-84
2023/05/13 08:43:00;;;;;;;6.28;3.70;;;33.80;29.40;;;;;;5071663;28;20154;-87
2023/05/13 08:45:29;;;;;;;8.00;3.88;;;32.90;29.30;;;;;;5076868;28;20028;-85
2023/05/13 08:48:00;;;;;;;5.97;3.78;;;32.00;29.60;;;;;;5079399;28;20067;-84
2023/05/13 08:50:28;;;;;;;6.72;3.90;;;31.50;30.20;;;;;;5072956;28;20328;-87
2023/05/13 08:52:54;;;;;;;6.68;3.78;;;31.80;31.80;;;;;;5085845;28;20484;-89
2023/05/13 08:55:20;;;;;;;5.72;3.50;;;32.40;30.90;;;;;;5081835;28;20083;-86
2023/05/13 08:57:46;;;;;;;5.88;3.50;;;32.30;31.40;;;;;;5063970;28;20041;-88
2023/05/13 09:00:13;;;;;;;5.32;3.30;;;31.90;30.10;;;;;;5067006;28;20065;-82
2023/05/13 09:02:39;;;;;;;9.32;3.75;;;32.90;30.00;;;;;;5066052;23;20176;-71
2023/05/13 09:05:06;;;;;;;7.43;3.67;;;33.10;29.60;;;;;;5080730;28;20498;-71
2023/05/13 09:07:34;;;;;;;6.68;4.05;;;32.70;28.80;;;;;;5063309;28;20422;-71
2023/05/13 09:09:59;;;;;;;6.38;3.80;;;32.60;28.90;;;;;;5085344;28;20272;-72
2023/05/13 09:12:58;;;;;;;7.50;4.15;;;33.10;29.40;;;;;;5061254;28;20067;-71
2023/05/13 09:15:25;;;;;;;6.53;3.78;;;34.40;28.70;;;;;;5041622;28;20550;-71
2023/05/13 09:18:01;;;;;;;5.18;3.05;;;32.60;29.10;;;;;;5073682;28;20497;-71
2023/05/13 09:20:27;;;;;;;5.80;3.88;;;33.70;29.70;;;;;;5061772;28;20020;-71
2023/05/13 09:23:01;;;;;;;7.05;3.60;;;33.00;28.90;;;;;;5059974;28;20027;-71
2023/05/13 09:25:27;;;;;;;7.30;3.72;;;31.50;28.80;;;;;;5064958;28;20083;-73
2023/05/13 09:27:56;;;;;;;5.13;3.70;;;32.30;29.80;;;;;;5044291;28;20039;-70
2023/05/13 09:30:22;;;;;;;8.55;3.78;;;32.10;29.70;;;;;;5063832;28;20231;-71
2023/05/13 09:33:11;;;;;;;6.40;3.47;;;31.90;29.60;;;;;;5065217;28;20199;-71
2023/05/13 09:35:57;;;;;;;5.07;3.35;;;31.70;30.30;;;;;;5060926;28;20505;-71
2023/05/13 09:38:30;;;;;;;7.55;3.72;;;33.10;30.30;;;;;;5061025;28;20081;-72
2023/05/13 09:40:58;;;;;;;6.75;4.03;;;31.20;28.60;;;;;;5060012;28;20032;-71
2023/05/13 09:43:31;;;;;;;5.95;2.88;;;30.80;31.80;;;;;;5062921;28;20422;-73
2023/05/13 09:46:00;;;;;;;5.65;4.15;;;31.80;31.00;;;;;;5065304;28;20436;-74
2023/05/13 09:48:27;;;;;;;5.28;3.58;;;30.60;30.10;;;;;;5055992;23;20072;-80
2023/05/13 09:50:56;;;;;;;6.40;3.53;;;31.00;32.70;;;;;;5065777;28;20503;-80
2023/05/13 09:53:21;;;;;;;7.57;4.10;;;32.80;30.20;;;;;;5070231;28;20077;-80
2023/05/13 09:55:51;;;;;;;7.43;4.35;;;32.40;29.80;;;;;;5052758;28;20025;-80
2023/05/13 09:58:19;;;;;;;6.53;4.10;;;31.10;29.70;;;;;;5064058;28;20032;-80
2023/05/13 10:00:46;;;;;;;8.07;3.92;;;31.30;30.80;;;;;;5084753;28;20632;-79
2023/05/13 10:03:12;;;;;;;6.60;3.55;;;31.90;29.60;;;;;;5087480;28;20031;-78
2023/05/13 10:05:39;;;;;;;8.15;3.40;;;32.40;30.60;;;;;;5084406;28;20044;-80
2023/05/13 10:08:07;;;;;;;6.05;3.60;;;33.00;30.80;;;;;;5076018;28;20035;-79
2023/05/13 10:10:34;;;;;;;6.68;4.28;;;33.50;30.00;;;;;;5070098;28;20037;-80
2023/05/13 10:13:05;;;;;;;7.05;3.83;;;33.30;29.30;;;;;;5068588;28;20035;-80
2023/05/13 10:15:32;;;;;;;10.32;3.70;;;32.50;30.00;;;;;;5077060;28;20074;-80
2023/05/13 10:17:58;;;;;;;6.40;3.20;;;33.10;31.40;;;;;;5066460;28;20047;-78
2023/05/13 10:20:27;;;;;;;5.32;3.53;;;33.80;28.80;;;;;;5059992;28;20078;-79
2023/05/13 10:22:54;;;;;;;4.15;3.40;;;33.80;29.50;;;;;;5085121;28;20024;-79
2023/05/13 10:25:21;;;;;;;6.40;3.13;;;33.80;29.70;;;;;;5069060;28;20040;-80
2023/05/13 10:27:48;;;;;;;5.70;3.72;;;34.90;29.60;;;;;;5073154;28;20032;-80
2023/05/13 10:30:14;;;;;;;6.18;4.00;;;35.10;26.60;;;;;;5067689;28;20054;-79
2023/05/13 10:32:40;;;;;;;7.63;4.35;;;33.00;28.70;;;;;;5076819;28;20471;-79
2023/05/13 10:35:17;;;;;;;5.75;3.47;;;33.50;28.10;;;;;;5093191;28;20036;-79
2023/05/13 10:38:08;;;;;;;7.43;4.15;;;33.70;30.00;;;;;;5103480;28;20156;-79
2023/05/13 10:41:07;;;;;;;6.07;3.92;;;33.90;29.30;;;;;;5103345;28;20040;-80
2023/05/13 10:43:34;;;;;;;5.22;3.80;;;35.10;29.60;;;;;;5065896;28;20028;-80
2023/05/13 10:46:10;;;;;;;8.43;3.97;;;34.80;27.60;;;;;;5070354;28;20101;-79
2023/05/13 10:48:46;;;;;;;6.85;3.75;;;34.90;28.00;;;;;;5066016;28;20557;-80
2023/05/13 10:51:16;;;;;;;7.00;4.00;;;34.60;30.10;;;;;;5099348;28;20074;-79
2023/05/13 10:53:43;;;;;;;;;;;34.00;27.70;;;;;;5064607;28;20430;-78
2023/05/13 10:56:08;;;;;;;7.00;3.50;;;32.90;30.00;;;;;;5076621;28;19919;-79
2023/05/13 10:58:38;;;;;;;5.60;3.60;;;34.30;29.50;;;;;;5064471;28;20033;-78
2023/05/13 11:01:34;;;;;;;5.15;3.15;;;34.00;30.80;;;;;;5063548;28;20032;-79
2023/05/13 11:04:02;;;;;;;4.82;2.90;;;35.30;28.80;;;;;;5067065;28;20120;-79
2023/05/13 11:06:38;;;;;;;7.32;3.60;;;36.60;28.40;;;;;;5064812;28;20123;-80
2023/05/13 11:09:06;;;;;;;5.18;2.92;;;35.20;27.80;;;;;;5081404;28;20099;-79
2023/05/13 11:11:36;;;;;;;7.40;3.92;;;35.30;28.30;;;;;;5062989;28;20325;-79
2023/05/13 11:14:14;;;;;;;4.28;3.25;;;34.60;27.60;;;;;;5064387;28;20033;-80
2023/05/13 11:16:45;;;;;;;5.43;3.45;;;33.70;30.50;;;;;;5064553;28;20039;-80
2023/05/13 11:19:31;;;;;;;7.25;3.17;;;33.80;30.70;;;;;;5068335;28;20020;-80
2023/05/13 11:22:03;;;;;;;6.07;3.70;;;33.70;30.80;;;;;;5100462;28;20035;-78
2023/05/13 11:24:29;;;;;;;5.40;4.10;;;33.10;32.30;;;;;;5068757;28;20032;-78
2023/05/13 11:26:57;;;;;;;5.85;3.42;;;31.60;31.10;;;;;;5068355;28;20529;-80
2023/05/13 11:29:34;;;;;;;7.22;3.85;;;30.60;34.10;;;;;;5051590;28;20024;-79
2023/05/13 11:32:02;;;;;;;7.43;4.47;;;28.90;36.70;;;;;;5051152;28;20096;-78
2023/05/13 11:34:28;;;;;;;7.05;4.20;;;26.80;39.00;;;;;;5064313;28;20031;-79
2023/05/13 11:37:07;;;;;;;8.73;4.13;;;26.30;42.80;;;;;;5053406;28;20032;-79
2023/05/13 11:39:33;;;;;;;10.52;4.30;;;25.70;45.70;;;;;;5072671;28;20042;-78
2023/05/13 11:42:03;;;;;;;6.93;4.07;;;25.50;46.90;;;;;;5057812;28;20028;-79
2023/05/13 11:44:29;;;;;;;6.70;4.10;;;25.10;41.70;;;;;;5087051;28;20126;-78
2023/05/13 11:47:06;;;;;;;8.05;4.15;;;25.30;48.10;;;;;;5055189;28;20639;-78
2023/05/13 11:49:39;;;;;;;6.63;3.70;;;25.40;45.80;;;;;;5066938;28;20028;-79
2023/05/13 11:52:14;;;;;;;7.53;4.40;;;26.20;48.00;;;;;;5065206;28;20484;-79
2023/05/13 11:54:47;;;;;;;5.72;4.15;;;25.90;46.80;;;;;;5047938;28;20197;-78
2023/05/13 11:57:14;;;;;;;9.98;5.03;;;25.40;48.30;;;;;;5063210;28;20040;-78
2023/05/13 11:59:40;;;;;;;7.60;4.10;;;25.20;51.90;;;;;;5075062;28;20587;-77
2023/05/13 12:02:05;;;;;;;10.95;4.32;;;25.40;48.30;;;;;;5062464;28;20126;-79
2023/05/13 12:04:31;;;;;;;7.65;4.38;;;25.30;52.80;;;;;;5065651;28;20491;-80
2023/05/13 12:06:57;;;;;;;6.70;4.95;;;24.90;51.80;;;;;;5077671;28;20036;-78
2023/05/13 12:09:23;;;;;;;8.38;4.50;;;24.50;51.70;;;;;;5069400;28;20028;-78
2023/05/13 12:11:51;;;;;;;10.15;4.50;;;24.50;50.30;;;;;;5073555;28;20036;-78
2023/05/13 12:14:18;;;;;;;7.80;4.10;;;24.20;53.80;;;;;;5044636;28;20415;-78
2023/05/13 12:16:45;;;;;;;6.15;4.10;;;24.30;51.30;;;;;;5062316;28;20028;-79
2023/05/13 12:19:11;;;;;;;6.38;4.30;;;25.00;63.40;;;;;;5068007;28;20034;-79
2023/05/13 12:21:37;;;;;;;7.25;4.45;;;24.60;50.40;;;;;;5067628;28;20729;-78
2023/05/13 12:24:21;;;;;;;6.95;4.72;;;24.40;55.60;;;;;;5054449;28;20120;-79
2023/05/13 12:26:47;;;;;;;7.00;4.70;;;24.10;56.40;;;;;;5078847;28;20029;-79
2023/05/13 12:29:13;;;;;;;8.35;5.47;;;23.30;54.30;;;;;;5077447;28;20467;-79
2023/05/13 12:31:41;;;;;;;10.95;4.70;;;23.30;59.70;;;;;;5054771;28;20550;-78
2023/05/13 12:34:07;;;;;;;7.43;5.72;;;23.10;56.40;;;;;;5066453;28;20028;-78
2023/05/13 12:36:36;;;;;;;7.00;4.47;;;23.20;54.30;;;;;;5070082;28;20094;-78
2023/05/13 12:39:09;;;;;;;8.27;4.90;;;24.10;66.70;;;;;;5070759;28;20144;-78
2023/05/13 12:41:40;;;;;;;8.63;5.07;;;24.70;60.30;;;;;;5071248;28;20119;-78